Time;durP1;ratioP1;P1;durP2;ratioP2;P2;SDS_P1;SDS_P2;PMS_P1;PMS_P2;Temp;Humidity;BMP_temperature;BMP_pressure;BME280_temperature;BME280_humidity;BME280_pressure;Samples;Min_cycle;Max_cycle;Signal;HPM_P1;HPM_P2
2020/12/23 00:02:00;;;;;;;1.37;1.27;;;12.00;99.90;;;;;;5055089;28;20175;-53
2020/12/23 00:04:26;;;;;;;1.40;1.30;;;12.10;99.90;;;;;;5054232;28;20714;-50
2020/12/23 00:06:52;;;;;;;1.40;1.30;;;12.00;99.90;;;;;;5055592;28;20274;-52
2020/12/23 00:09:17;;;;;;;2.00;1.80;;;12.00;99.90;;;;;;5054592;28;20283;-52
2020/12/23 00:11:43;;;;;;;1.87;1.77;;;12.00;99.90;;;;;;5054761;28;20294;-51
2020/12/23 00:14:09;;;;;;;2.43;2.03;;;12.00;99.90;;;;;;5054357;28;20198;-52
2020/12/23 00:16:35;;;;;;;3.03;2.27;;;12.10;99.90;;;;;;5054537;28;20250;-53
2020/12/23 00:19:00;;;;;;;2.27;2.17;;;12.10;99.90;;;;;;5054197;28;20238;-57
2020/12/23 00:21:26;;;;;;;2.30;2.10;;;12.10;99.90;;;;;;5055098;28;20563;-58
2020/12/23 00:23:51;;;;;;;4.27;2.30;;;12.10;99.90;;;;;;5054395;28;20675;-60
2020/12/23 00:26:17;;;;;;;2.30;2.10;;;12.10;99.90;;;;;;5054525;28;20183;-51
2020/12/23 00:28:42;;;;;;;3.13;2.37;;;12.20;99.90;;;;;;5054194;28;20191;-56
2020/12/23 00:31:08;;;;;;;2.87;2.10;;;12.20;99.90;;;;;;5053988;28;20203;-60
2020/12/23 00:33:34;;;;;;;2.50;2.30;;;12.30;99.90;;;;;;5054186;28;20581;-52
2020/12/23 00:35:59;;;;;;;4.03;2.40;;;12.30;99.90;;;;;;5053581;28;20213;-60
2020/12/23 00:38:25;;;;;;;2.60;2.40;;;12.40;99.90;;;;;;5054115;28;20231;-54
2020/12/23 00:40:51;;;;;;;3.40;2.40;;;12.40;99.90;;;;;;5054062;28;20186;-54
2020/12/23 00:43:16;;;;;;;2.73;2.47;;;12.40;99.90;;;;;;5053687;28;20240;-51
2020/12/23 00:45:42;;;;;;;2.93;2.50;;;12.30;99.90;;;;;;5054260;28;20217;-52
2020/12/23 00:48:07;;;;;;;2.53;2.23;;;12.30;99.90;;;;;;5054035;28;20256;-59
2020/12/23 00:50:33;;;;;;;3.77;2.10;;;12.30;99.90;;;;;;5054610;28;20198;-60
2020/12/23 00:52:58;;;;;;;2.57;2.20;;;12.40;99.90;;;;;;5053905;28;20527;-60
2020/12/23 00:55:24;;;;;;;3.47;2.40;;;12.40;99.90;;;;;;5053727;28;20179;-53
2020/12/23 00:57:49;;;;;;;2.73;2.30;;;12.50;99.90;;;;;;5053710;28;20195;-58
2020/12/23 01:00:15;;;;;;;2.37;2.20;;;12.50;99.90;;;;;;5053863;28;20175;-52
2020/12/23 01:02:40;;;;;;;3.30;2.37;;;12.40;99.90;;;;;;5053591;28;20183;-52
2020/12/23 01:05:06;;;;;;;2.60;2.40;;;12.40;99.90;;;;;;5051227;28;20203;-57
2020/12/23 01:07:31;;;;;;;4.20;2.63;;;12.30;99.90;;;;;;5050937;28;20206;-59
2020/12/23 01:09:57;;;;;;;3.70;2.47;;;13.50;99.90;;;;;;5053218;28;20190;-60
2020/12/23 01:12:23;;;;;;;2.40;2.20;;;12.20;99.90;;;;;;5051985;28;20655;-56
2020/12/23 01:14:48;;;;;;;2.23;2.10;;;12.10;99.90;;;;;;5046283;28;20262;-52
2020/12/23 01:17:14;;;;;;;1.77;1.67;;;12.00;99.90;;;;;;5054036;28;20195;-58
2020/12/23 01:19:40;;;;;;;2.07;1.97;;;12.10;99.90;;;;;;5053913;28;20187;-59
2020/12/23 01:22:06;;;;;;;2.70;2.50;;;12.10;99.90;;;;;;5048614;28;20208;-53
2020/12/23 01:24:32;;;;;;;2.40;2.20;;;12.10;99.90;;;;;;5040127;28;20179;-53
2020/12/23 01:26:57;;;;;;;2.47;2.27;;;12.10;99.90;;;;;;5053405;28;20202;-59
2020/12/23 01:29:23;;;;;;;1.90;1.80;;;12.10;99.90;;;;;;5052401;28;20579;-56
2020/12/23 01:31:48;;;;;;;1.87;1.77;;;12.20;99.90;;;;;;5053417;28;20658;-53
2020/12/23 01:34:14;;;;;;;2.90;2.60;;;12.10;99.90;;;;;;5053484;28;20655;-55
2020/12/23 01:36:39;;;;;;;2.80;2.60;;;12.00;99.90;;;;;;5053273;28;20562;-58
2020/12/23 01:39:05;;;;;;;2.80;2.33;;;12.60;99.90;;;;;;5054090;28;20167;-53
2020/12/23 01:41:31;;;;;;;2.07;1.97;;;11.90;99.90;;;;;;5053879;28;20175;-59
2020/12/23 01:43:58;;;;;;;2.47;2.20;;;12.10;99.90;;;;;;5053923;28;20175;-56
2020/12/23 01:46:35;;;;;;;1.93;1.83;;;12.30;99.90;;;;;;5053530;28;20194;-55
2020/12/23 01:49:10;;;;;;;1.70;1.60;;;12.40;99.90;;;;;;5054249;28;20183;-55
2020/12/23 01:51:37;;;;;;;1.90;1.80;;;12.30;99.90;;;;;;5038478;28;20290;-58
2020/12/23 01:54:03;;;;;;;1.50;1.40;;;12.30;99.90;;;;;;5033991;28;20174;-53
2020/12/23 01:56:30;;;;;;;2.03;1.83;;;12.40;99.90;;;;;;5033602;28;20184;-59
2020/12/23 01:58:56;;;;;;;2.20;1.70;;;12.40;99.90;;;;;;5048524;28;20195;-55
2020/12/23 02:01:24;;;;;;;1.70;1.50;;;12.50;99.90;;;;;;5053208;28;20261;-54
2020/12/23 02:03:50;;;;;;;1.63;1.53;;;12.60;99.90;;;;;;5055423;28;20285;-51
2020/12/23 02:06:16;;;;;;;2.10;1.50;;;12.70;99.90;;;;;;5057394;28;20194;-54
2020/12/23 02:08:43;;;;;;;1.77;1.67;;;12.60;99.90;;;;;;5067002;28;20194;-54
2020/12/23 02:11:10;;;;;;;4.00;1.70;;;12.50;99.90;;;;;;5076639;28;20202;-59
2020/12/23 02:13:40;;;;;;;2.43;1.50;;;13.60;99.90;;;;;;5077685;28;20182;-58
2020/12/23 02:16:06;;;;;;;2.70;2.50;;;12.60;99.90;;;;;;5068691;28;20262;-59
2020/12/23 02:18:33;;;;;;;2.40;2.30;;;12.60;99.90;;;;;;5058521;28;20242;-57
2020/12/23 02:20:59;;;;;;;2.50;2.30;;;12.50;99.90;;;;;;5057099;28;20186;-53
2020/12/23 02:23:24;;;;;;;2.27;2.07;;;12.40;99.90;;;;;;5056829;28;20171;-57
2020/12/23 02:25:50;;;;;;;3.63;2.43;;;12.40;99.90;;;;;;5057047;28;20171;-55
2020/12/23 02:28:16;;;;;;;2.40;2.20;;;12.40;99.90;;;;;;5069200;28;20657;-55
2020/12/23 02:30:41;;;;;;;3.67;2.20;;;13.50;99.90;;;;;;5061068;28;20211;-53
2020/12/23 02:33:07;;;;;;;2.67;2.37;;;12.40;99.90;;;;;;5069049;28;20269;-57
2020/12/23 02:35:32;;;;;;;2.53;2.30;;;12.50;99.90;;;;;;5077345;28;20633;-54
2020/12/23 02:37:58;;;;;;;3.00;2.70;;;12.50;99.90;;;;;;5057716;28;20201;-53
2020/12/23 02:40:24;;;;;;;2.47;2.27;;;12.50;99.90;;;;;;5057072;28;20179;-51
2020/12/23 02:42:50;;;;;;;3.63;2.33;;;12.60;99.90;;;;;;5057093;28;20543;-58
2020/12/23 02:45:15;;;;;;;2.80;2.60;;;12.60;99.90;;;;;;5056441;28;20500;-55
2020/12/23 02:47:41;;;;;;;2.90;2.60;;;12.60;99.90;;;;;;5056440;28;20661;-56
2020/12/23 02:50:06;;;;;;;2.60;2.40;;;12.60;99.90;;;;;;5056592;28;20214;-58
2020/12/23 02:52:32;;;;;;;2.90;2.70;;;12.60;99.90;;;;;;5056245;28;20171;-52
2020/12/23 02:54:58;;;;;;;2.83;2.47;;;12.60;99.90;;;;;;5056357;28;20224;-54
2020/12/23 02:57:23;;;;;;;2.77;2.57;;;12.60;99.90;;;;;;5056250;28;20732;-56
2020/12/23 02:59:49;;;;;;;2.57;2.37;;;12.70;99.90;;;;;;5055872;28;20527;-51
2020/12/23 03:02:14;;;;;;;2.50;2.30;;;12.60;99.90;;;;;;5056157;28;20183;-55
2020/12/23 03:04:40;;;;;;;3.80;2.60;;;12.70;99.90;;;;;;5055759;28;20179;-54
2020/12/23 03:07:05;;;;;;;2.90;2.60;;;12.60;99.90;;;;;;5056184;28;20219;-55
2020/12/23 03:09:31;;;;;;;2.80;2.60;;;12.60;99.90;;;;;;5055778;28;20175;-53
2020/12/23 03:11:56;;;;;;;2.80;2.60;;;12.50;99.90;;;;;;5055849;28;20250;-52
2020/12/23 03:14:22;;;;;;;3.20;2.90;;;12.30;99.90;;;;;;5056175;28;20209;-58
2020/12/23 03:16:47;;;;;;;2.80;2.60;;;12.20;99.90;;;;;;5056194;28;20171;-60
2020/12/23 03:19:13;;;;;;;3.40;2.83;;;12.20;99.90;;;;;;5055676;28;20539;-57
2020/12/23 03:21:38;;;;;;;6.07;2.73;;;12.20;99.90;;;;;;5055947;28;20262;-51
2020/12/23 03:24:04;;;;;;;3.00;2.80;;;12.10;99.90;;;;;;5054006;28;20179;-58
2020/12/23 03:26:30;;;;;;;3.30;3.00;;;12.00;99.90;;;;;;5042773;28;20179;-53
2020/12/23 03:28:55;;;;;;;3.30;3.00;;;11.80;99.90;;;;;;5044898;28;20206;-55
2020/12/23 03:31:21;;;;;;;3.40;3.00;;;11.60;99.90;;;;;;5051869;28;20278;-54
2020/12/23 03:33:47;;;;;;;3.23;2.93;;;11.50;99.90;;;;;;5055888;28;20198;-56
2020/12/23 03:36:12;;;;;;;3.00;2.70;;;11.40;99.90;;;;;;5055437;28;20215;-51
2020/12/23 03:38:38;;;;;;;2.80;2.60;;;11.30;99.90;;;;;;5055578;28;20202;-58
2020/12/23 03:41:04;;;;;;;2.67;2.47;;;11.30;99.90;;;;;;5056763;28;20241;-55
2020/12/23 03:43:29;;;;;;;2.60;2.30;;;11.20;99.90;;;;;;5055800;28;20171;-55
2020/12/23 03:45:55;;;;;;;2.73;2.53;;;11.10;99.90;;;;;;5052668;28;20185;-53
2020/12/23 03:48:21;;;;;;;2.77;2.30;;;11.10;99.90;;;;;;5036133;28;20210;-53
2020/12/23 03:50:46;;;;;;;2.40;2.20;;;11.10;99.90;;;;;;5035496;28;20603;-59
2020/12/23 03:53:12;;;;;;;2.60;2.40;;;11.10;99.90;;;;;;5052821;28;20225;-58
2020/12/23 03:55:38;;;;;;;2.57;2.37;;;11.10;99.90;;;;;;5055140;28;20179;-53
2020/12/23 03:58:03;;;;;;;4.50;2.40;;;11.10;99.90;;;;;;5055197;28;20195;-60
2020/12/23 04:00:29;;;;;;;2.67;2.47;;;11.10;99.90;;;;;;5054825;28;20190;-51
2020/12/23 04:02:54;;;;;;;2.40;2.20;;;11.20;99.90;;;;;;5056205;28;20179;-56
2020/12/23 04:05:20;;;;;;;2.47;2.10;;;11.20;99.90;;;;;;5054483;28;20183;-59
2020/12/23 04:07:46;;;;;;;3.00;2.67;;;11.20;99.90;;;;;;5054631;28;20213;-59
2020/12/23 04:10:11;;;;;;;4.27;2.40;;;11.30;99.90;;;;;;5054758;28;20217;-59
2020/12/23 04:12:37;;;;;;;3.87;2.60;;;11.30;99.90;;;;;;5054152;28;20666;-58
2020/12/23 04:15:07;;;;;;;2.73;2.53;;;11.30;99.90;;;;;;5054854;28;20167;-52
2020/12/23 04:17:33;;;;;;;4.30;2.33;;;11.30;99.90;;;;;;5054713;28;20191;-55
2020/12/23 04:19:59;;;;;;;2.37;2.17;;;11.50;99.90;;;;;;5054191;28;20512;-56
2020/12/23 04:22:28;;;;;;;2.90;2.30;;;11.60;99.90;;;;;;5054035;28;20282;-59
2020/12/23 04:25:01;;;;;;;2.63;1.83;;;12.40;99.90;;;;;;5054351;28;20179;-54
2020/12/23 04:27:29;;;;;;;1.87;1.77;;;11.60;99.90;;;;;;5054486;28;20226;-59
2020/12/23 04:29:55;;;;;;;2.20;1.87;;;11.70;99.90;;;;;;5054626;28;20262;-53
2020/12/23 04:32:21;;;;;;;3.30;1.80;;;11.70;99.90;;;;;;5054628;28;20297;-51
2020/12/23 04:34:46;;;;;;;2.10;2.00;;;11.70;99.90;;;;;;5054065;28;20171;-59
2020/12/23 04:37:12;;;;;;;3.27;2.37;;;11.90;99.90;;;;;;5054213;28;20647;-51
2020/12/23 04:39:38;;;;;;;2.17;2.07;;;12.00;99.90;;;;;;5054763;28;20606;-55
2020/12/23 04:42:04;;;;;;;2.67;2.20;;;12.10;99.90;;;;;;5054397;28;20186;-55
2020/12/23 04:44:31;;;;;;;2.70;2.50;;;12.10;99.90;;;;;;5053718;28;20186;-59
2020/12/23 04:46:58;;;;;;;2.83;2.40;;;12.10;99.90;;;;;;5053394;28;20731;-58
2020/12/23 04:49:24;;;;;;;3.60;2.87;;;12.00;99.90;;;;;;5054229;28;20543;-54
2020/12/23 04:51:54;;;;;;;3.93;2.57;;;12.00;99.90;;;;;;5053291;28;20670;-52
2020/12/23 04:54:20;;;;;;;2.93;2.70;;;12.00;99.90;;;;;;5053890;28;20209;-53
2020/12/23 04:56:47;;;;;;;3.37;2.60;;;11.90;99.90;;;;;;5053515;28;20175;-52
2020/12/23 04:59:12;;;;;;;2.40;2.20;;;11.70;99.90;;;;;;5054444;28;20183;-56
2020/12/23 05:01:38;;;;;;;2.73;2.30;;;11.50;99.90;;;;;;5053912;28;20519;-52
2020/12/23 05:04:04;;;;;;;2.33;2.13;;;11.40;99.90;;;;;;5054519;28;20175;-54
2020/12/23 05:06:29;;;;;;;2.70;2.50;;;11.40;99.90;;;;;;5053391;28;20179;-59
2020/12/23 05:08:55;;;;;;;4.63;2.60;;;11.40;99.90;;;;;;5054223;28;20187;-56
2020/12/23 05:11:20;;;;;;;3.33;3.03;;;11.50;99.90;;;;;;5052995;28;20252;-52
2020/12/23 05:13:46;;;;;;;3.00;2.70;;;11.60;99.90;;;;;;5053362;28;20642;-57
2020/12/23 05:16:21;;;;;;;3.10;2.90;;;11.70;99.90;;;;;;5053516;28;20585;-58
2020/12/23 05:18:47;;;;;;;3.10;2.90;;;11.90;99.90;;;;;;5053947;28;20202;-58
2020/12/23 05:21:16;;;;;;;2.87;2.67;;;11.90;99.90;;;;;;5054232;28;20208;-58
2020/12/23 05:23:46;;;;;;;2.70;2.53;;;11.90;99.90;;;;;;5054061;28;20527;-54
2020/12/23 05:26:12;;;;;;;5.33;2.93;;;11.80;99.90;;;;;;5053331;28;20190;-58
2020/12/23 05:28:39;;;;;;;3.00;2.80;;;11.70;99.90;;;;;;5052834;28;20203;-56
2020/12/23 05:31:10;;;;;;;2.57;2.30;;;11.60;99.90;;;;;;5053464;28;20207;-55
2020/12/23 05:33:39;;;;;;;4.43;2.30;;;11.60;99.90;;;;;;5053466;28;20650;-53
2020/12/23 05:36:09;;;;;;;2.30;2.10;;;11.60;99.90;;;;;;5053916;28;20262;-54
2020/12/23 05:38:35;;;;;;;3.23;2.10;;;11.50;99.90;;;;;;5057714;28;20203;-52
2020/12/23 05:41:03;;;;;;;2.63;2.30;;;12.60;99.90;;;;;;5057736;28;20187;-52
2020/12/23 05:43:30;;;;;;;2.37;2.10;;;11.50;99.90;;;;;;5057511;28;20206;-59
2020/12/23 05:45:57;;;;;;;4.23;2.07;;;11.60;99.90;;;;;;5056844;28;20654;-57
2020/12/23 05:48:23;;;;;;;2.53;2.40;;;11.60;99.90;;;;;;5057262;28;20276;-58
2020/12/23 05:50:48;;;;;;;2.50;2.30;;;11.50;99.90;;;;;;5056987;28;20253;-56
2020/12/23 05:53:15;;;;;;;2.63;2.43;;;11.40;99.90;;;;;;5058384;28;20183;-55
2020/12/23 05:55:48;;;;;;;9.10;8.30;;;11.30;99.90;;;;;;5057269;28;20179;-52
2020/12/23 05:58:23;;;;;;;5.53;5.03;;;11.20;99.90;;;;;;5058347;28;20226;-59
2020/12/23 06:00:50;;;;;;;5.77;5.23;;;11.20;99.90;;;;;;5056839;28;20189;-53
2020/12/23 06:03:21;;;;;;;10.67;9.67;;;11.30;99.90;;;;;;5057983;28;20183;-51
2020/12/23 06:06:01;;;;;;;12.87;11.67;;;11.30;99.90;;;;;;5057464;28;20190;-53
2020/12/23 06:08:36;;;;;;;7.30;6.60;;;11.30;99.90;;;;;;5054430;28;20198;-55
2020/12/23 06:11:19;;;;;;;5.97;5.33;;;11.40;99.90;;;;;;5056465;28;20230;-58
2020/12/23 06:14:03;;;;;;;2.60;2.37;;;11.40;99.90;;;;;;5050784;28;20182;-56
2020/12/23 06:16:31;;;;;;;3.63;3.33;;;11.60;99.90;;;;;;5056846;28;20166;-59
2020/12/23 06:19:10;;;;;;;8.27;6.97;;;11.70;99.90;;;;;;5055660;28;20244;-52
2020/12/23 06:21:37;;;;;;;4.70;4.27;;;11.60;99.90;;;;;;5056765;28;20172;-51
2020/12/23 06:24:15;;;;;;;3.60;3.30;;;11.60;99.90;;;;;;5052965;28;20209;-54
2020/12/23 06:26:43;;;;;;;4.17;3.70;;;11.60;99.90;;;;;;5055437;28;20167;-56
2020/12/23 06:29:14;;;;;;;4.13;3.72;;;11.70;99.90;;;;;;5051951;28;20434;-54
2020/12/23 06:32:00;;;;;;;4.50;4.00;;;11.80;99.90;;;;;;5056370;28;20729;-55
2020/12/23 06:34:27;;;;;;;5.20;4.80;;;11.70;99.90;;;;;;5056148;28;20215;-50
2020/12/23 06:36:54;;;;;;;5.20;4.80;;;11.80;99.90;;;;;;5055593;28;20539;-52
2020/12/23 06:39:25;;;;;;;4.27;3.40;;;11.70;99.90;;;;;;5056344;28;20186;-57
2020/12/23 06:42:00;;;;;;;4.47;3.53;;;11.60;99.90;;;;;;5055546;28;20287;-51
2020/12/23 06:44:45;;;;;;;5.00;4.60;;;11.50;99.90;;;;;;5056044;28;20170;-60
2020/12/23 06:47:12;;;;;;;5.67;5.17;;;11.60;99.90;;;;;;5035447;28;20220;-54
2020/12/23 06:49:42;;;;;;;4.40;4.00;;;11.70;99.90;;;;;;5036347;28;20180;-58
2020/12/23 06:52:23;;;;;;;5.23;4.73;;;11.80;99.90;;;;;;5054775;28;20199;-57
2020/12/23 06:55:08;;;;;;;3.40;3.10;;;11.70;99.90;;;;;;5055146;28;20221;-55
2020/12/23 06:57:36;;;;;;;3.57;3.27;;;11.70;99.90;;;;;;5055983;28;20191;-57
2020/12/23 07:00:11;;;;;;;3.57;2.80;;;11.70;99.90;;;;;;5055826;28;20167;-53
2020/12/23 07:02:44;;;;;;;3.37;2.80;;;11.80;99.90;;;;;;5055777;28;20198;-56
2020/12/23 07:05:34;;;;;;;3.30;3.00;;;13.00;99.90;;;;;;5055478;28;20179;-54
2020/12/23 07:08:07;;;;;;;4.20;3.20;;;11.80;99.90;;;;;;5044900;28;20686;-55
2020/12/23 07:10:36;;;;;;;3.13;2.93;;;11.70;99.90;;;;;;5040205;28;20796;-55
2020/12/23 07:13:14;;;;;;;3.10;2.80;;;11.70;99.90;;;;;;5046230;28;20241;-53
2020/12/23 07:15:51;;;;;;;2.70;2.50;;;11.60;99.90;;;;;;5050111;28;20844;-54
2020/12/23 07:18:22;;;;;;;3.30;2.53;;;11.50;99.90;;;;;;5050480;28;20221;-54
2020/12/23 07:20:49;;;;;;;4.30;2.40;;;11.40;99.90;;;;;;5055484;28;20182;-54
2020/12/23 07:23:17;;;;;;;2.67;2.47;;;11.40;99.90;;;;;;5052236;28;20407;-55
2020/12/23 07:28:39;;;;;;;2.40;2.20;;;12.30;99.90;;;;;;5065285;22;20590;-56
2020/12/23 07:31:07;;;;;;;2.47;2.27;;;11.60;99.90;;;;;;5025731;28;20615;-54
2020/12/23 07:33:36;;;;;;;2.30;2.10;;;11.50;99.90;;;;;;5022264;28;20263;-51
2020/12/23 07:36:03;;;;;;;2.40;2.10;;;11.40;99.90;;;;;;5027604;28;20726;-52
2020/12/23 07:38:32;;;;;;;2.60;2.20;;;11.40;99.90;;;;;;5036915;28;20191;-52
2020/12/23 07:40:58;;;;;;;2.83;2.40;;;11.40;99.90;;;;;;5036471;28;20242;-51
2020/12/23 07:43:25;;;;;;;2.50;2.30;;;11.50;99.90;;;;;;5035296;28;20252;-51
2020/12/23 07:45:51;;;;;;;4.90;2.27;;;11.50;99.90;;;;;;5035552;28;20661;-57
2020/12/23 07:48:18;;;;;;;2.93;2.73;;;11.70;99.90;;;;;;5016969;28;20229;-56
2020/12/23 07:50:49;;;;;;;11.03;7.70;;;11.80;99.90;;;;;;5015263;28;20227;-53
2020/12/23 07:53:18;;;;;;;3.93;3.57;;;11.90;99.90;;;;;;5016820;28;20172;-51
2020/12/23 07:55:47;;;;;;;8.37;7.27;;;12.60;99.90;;;;;;5017426;28;20176;-54
2020/12/23 07:58:13;;;;;;;9.67;8.67;;;12.20;99.90;;;;;;5016603;28;20196;-54
2020/12/23 08:00:40;;;;;;;8.33;7.43;;;12.30;99.90;;;;;;5015212;28;20180;-53
2020/12/23 08:03:07;;;;;;;5.07;4.67;;;12.40;99.90;;;;;;5036149;28;20179;-56
2020/12/23 08:05:36;;;;;;;3.27;2.97;;;12.60;99.90;;;;;;5036782;28;20203;-54
2020/12/23 08:08:02;;;;;;;3.77;3.47;;;12.80;99.90;;;;;;5035871;28;20196;-57
2020/12/23 08:10:28;;;;;;;4.20;3.80;;;13.00;99.90;;;;;;5036183;28;20649;-54
2020/12/23 08:12:59;;;;;;;3.63;3.00;;;13.30;99.90;;;;;;5035034;28;20575;-57
2020/12/23 08:15:25;;;;;;;3.03;2.80;;;13.60;99.90;;;;;;5034792;28;20525;-57
2020/12/23 08:18:11;;;;;;;5.43;4.07;;;13.90;99.90;;;;;;5034402;28;20196;-54
2020/12/23 08:20:36;;;;;;;3.60;3.30;;;14.20;99.90;;;;;;5015244;28;20192;-55
2020/12/23 08:23:03;;;;;;;3.37;3.07;;;14.40;99.90;;;;;;5014745;28;20675;-53
2020/12/23 08:25:30;;;;;;;3.00;2.63;;;14.60;99.90;;;;;;5015257;28;20635;-51
2020/12/23 08:27:58;;;;;;;2.40;2.20;;;14.80;99.90;;;;;;5015659;28;20703;-52
2020/12/23 08:30:28;;;;;;;2.73;2.53;;;14.90;99.90;;;;;;5015117;28;20222;-55
2020/12/23 08:33:14;;;;;;;3.77;2.93;;;15.10;99.90;;;;;;5016248;28;20545;-52
2020/12/23 08:35:41;;;;;;;2.87;2.60;;;15.00;99.90;;;;;;5022921;28;20175;-56
2020/12/23 08:38:18;;;;;;;2.50;2.30;;;14.70;99.90;;;;;;5035878;28;20191;-57
2020/12/23 08:40:54;;;;;;;3.20;2.47;;;14.30;99.90;;;;;;5036701;28;20206;-60
2020/12/23 08:43:52;;;;;;;5.40;3.77;;;14.10;99.90;;;;;;5036068;28;20172;-50
2020/12/23 08:46:25;;;;;;;2.77;2.57;;;14.00;99.90;;;;;;5020213;28;20187;-58
2020/12/23 08:48:52;;;;;;;5.87;3.73;;;13.90;99.90;;;;;;5016301;28;20285;-55
2020/12/23 08:51:25;;;;;;;3.27;2.97;;;13.80;99.90;;;;;;5016093;28;20206;-52
2020/12/23 08:53:54;;;;;;;4.27;3.40;;;13.80;99.90;;;;;;5031534;28;20177;-56
2020/12/23 08:56:31;;;;;;;3.00;2.67;;;13.60;99.90;;;;;;5017849;28;20202;-51
2020/12/23 08:59:02;;;;;;;4.30;3.67;;;13.50;99.90;;;;;;5034536;28;20204;-51
2020/12/23 09:01:29;;;;;;;5.50;4.00;;;13.50;99.90;;;;;;5014890;28;20591;-51
2020/12/23 09:04:09;;;;;;;5.20;3.03;;;13.50;99.90;;;;;;5014322;28;20173;-53
2020/12/23 09:06:43;;;;;;;3.40;3.10;;;13.50;99.90;;;;;;5015356;28;20239;-59
2020/12/23 09:09:09;;;;;;;3.50;3.20;;;13.50;99.90;;;;;;5014522;28;20288;-58
2020/12/23 09:11:43;;;;;;;8.50;7.60;;;13.50;99.90;;;;;;5016681;28;20224;-56
2020/12/23 09:14:29;;;;;;;22.87;20.47;;;13.60;99.90;;;;;;5033255;28;20234;-58
2020/12/23 09:17:17;;;;;;;10.73;9.63;;;13.60;99.90;;;;;;5034851;28;20177;-54
2020/12/23 09:19:52;;;;;;;13.17;11.87;;;13.70;99.90;;;;;;5018997;28;20193;-52
2020/12/23 09:22:26;;;;;;;10.03;8.97;;;13.60;99.90;;;;;;5035332;28;20167;-52
2020/12/23 09:24:52;;;;;;;12.10;10.80;;;13.80;99.90;;;;;;5034841;28;20640;-55
2020/12/23 09:27:25;;;;;;;5.10;4.43;;;13.60;99.90;;;;;;5033753;28;20173;-51
2020/12/23 09:29:51;;;;;;;4.03;3.40;;;13.50;99.90;;;;;;5034082;28;20191;-53
2020/12/23 09:32:17;;;;;;;5.33;4.80;;;13.40;99.90;;;;;;5026612;28;20255;-51
2020/12/23 09:34:43;;;;;;;3.90;3.50;;;13.40;99.90;;;;;;5024446;28;20181;-57
2020/12/23 09:37:09;;;;;;;4.53;3.50;;;13.30;99.90;;;;;;5022533;28;20208;-50
2020/12/23 09:39:38;;;;;;;4.40;4.00;;;13.20;99.90;;;;;;5029340;28;20611;-56
2020/12/23 09:42:06;;;;;;;4.07;3.67;;;13.70;99.90;;;;;;5014429;28;20173;-52
2020/12/23 09:44:33;;;;;;;6.17;5.57;;;13.10;99.90;;;;;;5021328;28;20181;-52
2020/12/23 09:46:59;;;;;;;5.97;5.20;;;13.20;99.90;;;;;;5026725;28;20211;-53
2020/12/23 09:49:25;;;;;;;6.27;5.67;;;14.30;99.90;;;;;;5026247;28;20200;-51
2020/12/23 09:51:51;;;;;;;5.77;5.17;;;13.40;99.90;;;;;;5023251;28;20223;-59
2020/12/23 09:54:17;;;;;;;8.47;6.33;;;13.50;99.90;;;;;;5018064;28;20520;-55
2020/12/23 09:56:53;;;;;;;4.13;3.83;;;13.70;99.90;;;;;;5035605;28;20167;-53
2020/12/23 09:59:19;;;;;;;12.07;10.87;;;13.80;99.90;;;;;;5033969;28;20194;-57
2020/12/23 10:01:46;;;;;;;18.00;16.10;;;14.30;99.90;;;;;;5035152;28;20182;-52
2020/12/23 10:04:12;;;;;;;11.43;10.10;;;14.30;99.90;;;;;;5035813;28;20640;-54
2020/12/23 10:06:38;;;;;;;18.13;16.17;;;14.80;99.90;;;;;;5034176;28;20552;-53
2020/12/23 10:09:04;;;;;;;27.87;23.80;;;15.50;99.90;;;;;;5032096;28;20196;-53
2020/12/23 10:11:30;;;;;;;5.40;4.80;;;16.30;99.90;;;;;;5035629;28;20202;-60
2020/12/23 10:13:56;;;;;;;3.07;2.87;;;17.20;99.90;;;;;;5034089;28;20170;-60
2020/12/23 10:16:23;;;;;;;3.23;2.70;;;18.50;99.90;;;;;;5035222;28;20203;-55
2020/12/23 10:18:48;;;;;;;7.72;6.18;;;20.10;99.90;;;;;;5032722;28;20208;-54
2020/12/23 10:21:14;;;;;;;4.40;4.00;;;21.80;99.90;;;;;;5033265;28;20560;-55
2020/12/23 10:23:40;;;;;;;3.75;3.42;;;23.30;99.90;;;;;;5034846;28;20199;-52
2020/12/23 10:26:05;;;;;;;2.97;2.78;;;24.70;99.90;;;;;;5037572;28;20180;-57
2020/12/23 10:28:31;;;;;;;2.33;2.22;;;25.80;99.90;;;;;;5036715;28;20690;-54
2020/12/23 10:30:56;;;;;;;2.20;2.00;;;26.00;98.40;;;;;;5036936;28;20212;-51
2020/12/23 10:33:22;;;;;;;1.90;1.80;;;25.80;97.20;;;;;;5036196;28;20168;-54
2020/12/23 10:35:47;;;;;;;2.85;2.17;;;25.40;97.80;;;;;;5036799;28;20179;-57
2020/12/23 10:38:13;;;;;;;2.97;2.03;;;24.60;97.40;;;;;;5036615;28;20640;-56
2020/12/23 10:40:38;;;;;;;3.28;1.92;;;23.80;98.40;;;;;;5037621;28;20190;-53
2020/12/23 10:43:04;;;;;;;1.90;1.73;;;22.80;98.10;;;;;;5038250;28;20174;-55
2020/12/23 10:45:29;;;;;;;2.27;1.90;;;21.10;99.90;;;;;;5019799;28;20211;-60
2020/12/23 10:47:55;;;;;;;2.23;2.03;;;19.80;99.90;;;;;;5033839;28;20282;-56
2020/12/23 10:50:21;;;;;;;2.50;1.97;;;18.90;99.90;;;;;;5036508;28;20167;-61
2020/12/23 10:52:46;;;;;;;2.43;2.20;;;18.50;99.90;;;;;;5034525;28;20271;-62
2020/12/23 10:55:12;;;;;;;3.40;2.17;;;18.00;99.90;;;;;;5036538;28;20264;-54
2020/12/23 10:57:38;;;;;;;6.40;5.70;;;17.50;99.90;;;;;;5032993;28;20208;-53
2020/12/23 11:00:06;;;;;;;4.00;3.40;;;17.00;99.90;;;;;;5018424;28;20188;-53
2020/12/23 11:02:31;;;;;;;7.07;3.40;;;16.80;99.90;;;;;;5036754;28;20187;-55
2020/12/23 11:04:57;;;;;;;3.67;3.37;;;16.50;99.90;;;;;;5037167;28;20184;-53
2020/12/23 11:07:22;;;;;;;3.60;2.70;;;16.30;99.90;;;;;;5039264;28;20176;-61
2020/12/23 11:09:48;;;;;;;3.77;2.53;;;16.10;99.90;;;;;;5038890;28;20171;-56
2020/12/23 11:12:13;;;;;;;3.43;3.13;;;16.00;99.90;;;;;;5038518;28;20664;-54
2020/12/23 11:14:39;;;;;;;3.30;3.00;;;15.70;99.90;;;;;;5035690;28;20254;-56
2020/12/23 11:17:04;;;;;;;5.73;5.17;;;15.60;99.90;;;;;;5035199;28;20234;-60
2020/12/23 11:19:30;;;;;;;4.63;4.07;;;15.50;99.90;;;;;;5035184;28;20211;-58
2020/12/23 11:21:55;;;;;;;3.30;3.00;;;15.40;99.90;;;;;;5035433;28;20524;-59
2020/12/23 11:24:21;;;;;;;4.50;2.40;;;15.10;99.90;;;;;;5021474;28;20198;-58
2020/12/23 11:26:48;;;;;;;2.90;2.10;;;14.90;99.90;;;;;;5015504;28;20194;-54
2020/12/23 11:29:14;;;;;;;48.07;37.40;;;14.60;99.90;;;;;;5016166;28;20246;-61
2020/12/23 11:31:39;;;;;;;8.33;7.07;;;14.40;99.90;;;;;;5016626;28;20259;-55
2020/12/23 11:34:05;;;;;;;4.10;3.33;;;14.10;99.90;;;;;;5015795;28;20181;-60
2020/12/23 11:36:31;;;;;;;3.80;3.40;;;13.90;99.90;;;;;;5015581;28;20174;-59
2020/12/23 11:38:58;;;;;;;4.10;3.70;;;13.90;99.90;;;;;;5016395;28;20198;-56
2020/12/23 11:41:23;;;;;;;3.20;2.90;;;14.00;99.90;;;;;;5031163;28;20229;-60
2020/12/23 11:43:49;;;;;;;4.43;3.30;;;14.10;99.90;;;;;;5035654;28;20185;-58
2020/12/23 11:46:14;;;;;;;3.53;3.23;;;14.20;99.90;;;;;;5038280;28;20178;-61
2020/12/23 11:48:41;;;;;;;6.37;5.77;;;14.30;99.90;;;;;;5014816;28;20212;-52
2020/12/23 11:51:07;;;;;;;10.33;9.33;;;14.30;99.90;;;;;;5036742;28;20252;-59
2020/12/23 11:53:34;;;;;;;7.27;6.47;;;14.30;99.90;;;;;;5035912;28;20169;-58
2020/12/23 11:55:59;;;;;;;3.73;3.30;;;14.30;99.90;;;;;;5035306;28;20175;-59
2020/12/23 11:58:25;;;;;;;3.27;2.80;;;14.30;99.90;;;;;;5034891;28;20201;-60
2020/12/23 12:00:51;;;;;;;5.20;3.03;;;14.30;99.90;;;;;;5035065;28;20185;-59
2020/12/23 12:03:16;;;;;;;3.37;3.07;;;14.10;99.90;;;;;;5034591;28;20187;-58
2020/12/23 12:05:42;;;;;;;2.80;2.40;;;14.30;99.90;;;;;;5029444;28;20261;-54
2020/12/23 12:08:08;;;;;;;2.60;2.40;;;13.50;99.90;;;;;;5013791;28;20229;-59
2020/12/23 12:10:34;;;;;;;2.87;2.57;;;13.50;99.90;;;;;;5015920;28;20205;-53
2020/12/23 12:13:00;;;;;;;3.40;3.10;;;13.60;99.90;;;;;;5014659;28;20173;-59
2020/12/23 12:15:26;;;;;;;3.60;3.10;;;13.70;99.90;;;;;;5028820;28;20267;-59
2020/12/23 12:17:52;;;;;;;3.40;3.10;;;13.70;99.90;;;;;;5034378;28;20219;-57
2020/12/23 12:20:19;;;;;;;3.33;3.03;;;13.80;99.90;;;;;;5034550;28;20634;-58
2020/12/23 12:22:47;;;;;;;3.47;3.17;;;13.80;99.90;;;;;;5034548;28;20226;-57
2020/12/23 12:25:14;;;;;;;3.90;3.50;;;13.90;99.90;;;;;;5034225;28;20525;-59
2020/12/23 12:27:39;;;;;;;3.30;3.00;;;14.10;99.90;;;;;;5034352;28;20284;-60
2020/12/23 12:30:05;;;;;;;3.70;3.00;;;14.20;99.90;;;;;;5034244;28;20225;-61
2020/12/23 12:32:31;;;;;;;6.30;2.90;;;14.30;99.90;;;;;;5034232;28;20203;-60
2020/12/23 12:34:56;;;;;;;3.30;2.90;;;14.50;99.90;;;;;;5033630;28;20222;-59
2020/12/23 12:37:22;;;;;;;3.70;3.07;;;14.70;99.90;;;;;;5034317;28;20516;-59
2020/12/23 12:39:47;;;;;;;5.60;3.27;;;14.80;99.90;;;;;;5033257;28;20631;-55
2020/12/23 12:42:13;;;;;;;4.70;3.83;;;14.90;99.90;;;;;;5034303;28;20183;-54
2020/12/23 12:44:38;;;;;;;3.50;3.20;;;14.70;99.90;;;;;;5033739;28;20205;-59
2020/12/23 12:47:04;;;;;;;3.20;2.97;;;14.50;99.90;;;;;;5033361;28;20236;-59
2020/12/23 12:49:29;;;;;;;3.57;3.27;;;14.30;99.90;;;;;;5032933;28;20201;-61
2020/12/23 12:51:56;;;;;;;3.90;3.50;;;14.10;99.90;;;;;;5033783;28;20670;-58